createdAt,value
2018-03-17T00:00:12.720Z,88.60
2018-03-17T00:02:40.152Z,88.40
2018-03-17T00:05:07.584Z,88.20
2018-03-17T00:07:35.202Z,88.30
2018-03-17T00:10:02.628Z,88.20
2018-03-17T00:12:30.071Z,88.00
2018-03-17T00:14:57.501Z,87.90
2018-03-17T00:17:24.952Z,87.60
2018-03-17T00:19:52.385Z,87.70
2018-03-17T00:22:19.813Z,87.70
2018-03-17T00:24:47.283Z,87.70
2018-03-17T00:27:14.692Z,88.20
2018-03-17T00:29:42.123Z,88.20
2018-03-17T00:32:09.547Z,89.40
2018-03-17T00:34:36.984Z,88.80
2018-03-17T00:37:04.424Z,88.90
2018-03-17T00:39:31.880Z,88.40
2018-03-17T00:41:59.327Z,88.70
2018-03-17T00:44:27.544Z,89.00
2018-03-17T00:46:54.971Z,88.90
2018-03-17T00:49:22.581Z,89.40
2018-03-17T00:51:50.020Z,89.50
2018-03-17T00:54:17.466Z,89.60
2018-03-17T00:56:44.927Z,89.30
2018-03-17T00:59:12.391Z,88.70
2018-03-17T01:01:39.829Z,88.60
2018-03-17T01:04:07.255Z,88.70
2018-03-17T01:06:34.697Z,89.40
2018-03-17T01:09:02.144Z,89.60
2018-03-17T01:11:29.704Z,89.70
2018-03-17T01:13:57.114Z,89.50
2018-03-17T01:16:24.564Z,89.50
2018-03-17T01:18:52.024Z,89.50
2018-03-17T01:21:19.460Z,89.20
2018-03-17T01:23:46.879Z,89.20
2018-03-17T01:26:15.098Z,88.50
2018-03-17T01:28:42.580Z,88.30
2018-03-17T01:31:10.008Z,88.30
2018-03-17T01:33:38.205Z,88.10
2018-03-17T01:36:05.636Z,88.00
2018-03-17T01:38:33.084Z,87.90
2018-03-17T01:41:00.515Z,88.10
2018-03-17T01:43:27.949Z,88.30
2018-03-17T01:45:55.396Z,87.70
2018-03-17T01:48:22.841Z,87.80
2018-03-17T01:50:50.272Z,87.90
2018-03-17T01:53:17.725Z,87.90
2018-03-17T01:55:45.145Z,87.90
2018-03-17T01:58:12.587Z,87.50
2018-03-17T02:00:40.012Z,87.70
2018-03-17T02:03:07.466Z,87.90
2018-03-17T02:05:34.913Z,87.80
2018-03-17T02:08:02.349Z,87.90
2018-03-17T02:10:29.818Z,87.20
2018-03-17T02:12:57.240Z,86.50
2018-03-17T02:15:24.676Z,86.10
2018-03-17T02:17:52.124Z,86.20
2018-03-17T02:20:19.551Z,85.60
2018-03-17T02:22:46.997Z,85.60
2018-03-17T02:25:14.420Z,85.30
2018-03-17T02:27:41.852Z,84.90
2018-03-17T02:30:09.281Z,84.60
2018-03-17T02:32:36.731Z,83.90
2018-03-17T02:35:04.149Z,84.30
2018-03-17T02:37:32.365Z,85.00
2018-03-17T02:39:59.981Z,84.90
2018-03-17T02:42:27.420Z,85.30
2018-03-17T02:44:54.855Z,85.70
2018-03-17T02:47:22.301Z,86.20
2018-03-17T02:49:49.734Z,86.20
2018-03-17T02:52:17.168Z,86.20
2018-03-17T02:54:44.604Z,86.20
2018-03-17T02:57:12.065Z,86.50
2018-03-17T02:59:39.510Z,87.30
2018-03-17T03:02:07.091Z,87.20
2018-03-17T03:04:34.532Z,87.50
2018-03-17T03:07:01.960Z,87.50
2018-03-17T03:09:29.411Z,87.70
2018-03-17T03:11:56.831Z,87.70
2018-03-17T03:14:25.036Z,87.70
2018-03-17T03:16:52.464Z,87.70
2018-03-17T03:19:19.912Z,87.80
2018-03-17T03:21:47.336Z,87.20
2018-03-17T03:24:15.686Z,86.70
2018-03-17T03:26:43.127Z,86.70
2018-03-17T03:29:10.567Z,86.30
2018-03-17T03:31:38.757Z,86.60
2018-03-17T03:34:06.184Z,86.50
2018-03-17T03:36:33.599Z,86.60
2018-03-17T03:39:01.110Z,86.00
2018-03-17T03:41:28.515Z,86.20
2018-03-17T03:43:55.970Z,86.10
2018-03-17T03:46:23.394Z,86.20
2018-03-17T03:48:51.595Z,85.80
2018-03-17T03:51:19.029Z,85.60
2018-03-17T03:53:46.448Z,85.20
2018-03-17T03:56:13.899Z,85.20
2018-03-17T03:58:41.322Z,85.00
2018-03-17T04:01:08.759Z,84.80
2018-03-17T04:03:36.196Z,84.70
2018-03-17T04:06:04.421Z,84.90
2018-03-17T04:08:31.847Z,84.70
2018-03-17T04:10:59.263Z,84.80
2018-03-17T04:13:26.703Z,84.90
2018-03-17T04:15:54.139Z,84.80
2018-03-17T04:18:21.600Z,85.00
2018-03-17T04:20:49.021Z,84.50
2018-03-17T04:23:17.244Z,83.80
2018-03-17T04:25:44.677Z,84.50
2018-03-17T04:28:12.117Z,83.30
2018-03-17T04:30:39.531Z,83.20
2018-03-17T04:33:06.972Z,82.80
2018-03-17T04:35:34.401Z,82.40
2018-03-17T04:38:01.854Z,82.00
2018-03-17T04:40:29.276Z,81.60
2018-03-17T04:42:56.708Z,81.10
2018-03-17T04:45:24.127Z,80.60
2018-03-17T04:47:51.571Z,80.50
2018-03-17T04:50:19.220Z,80.30
2018-03-17T04:52:46.660Z,80.00
2018-03-17T04:55:14.103Z,79.90
2018-03-17T04:57:41.543Z,79.80
2018-03-17T05:00:08.976Z,79.70
2018-03-17T05:02:36.408Z,79.50
2018-03-17T05:05:04.612Z,79.00
2018-03-17T05:07:32.035Z,79.00
2018-03-17T05:10:00.289Z,78.30
2018-03-17T05:12:27.847Z,78.40
2018-03-17T05:14:55.286Z,78.30
2018-03-17T05:17:22.726Z,78.20
2018-03-17T05:19:50.178Z,78.50
2018-03-17T05:22:17.592Z,78.70
2018-03-17T05:24:45.806Z,80.20
2018-03-17T05:27:13.239Z,80.10
2018-03-17T05:29:40.675Z,80.80
2018-03-17T05:32:08.112Z,81.00
2018-03-17T05:34:35.587Z,81.00
2018-03-17T05:37:03.033Z,81.20
2018-03-17T05:39:30.470Z,81.30
2018-03-17T05:41:57.904Z,81.00
2018-03-17T05:44:25.332Z,80.80
2018-03-17T05:46:53.537Z,81.60
2018-03-17T05:49:20.985Z,81.40
2018-03-17T05:51:48.428Z,81.10
2018-03-17T05:54:15.854Z,80.50
2018-03-17T05:56:43.335Z,81.00
2018-03-17T05:59:10.763Z,81.20
2018-03-17T06:01:38.200Z,81.00
2018-03-17T06:04:05.652Z,80.70
2018-03-17T06:06:33.097Z,80.30
2018-03-17T06:09:00.535Z,79.70
2018-03-17T06:11:27.984Z,80.30
2018-03-17T06:13:55.416Z,80.20
2018-03-17T06:16:22.868Z,80.20
2018-03-17T06:18:50.435Z,80.60
2018-03-17T06:21:18.656Z,80.80
2018-03-17T06:23:46.103Z,80.80
2018-03-17T06:26:13.547Z,81.10
2018-03-17T06:28:40.996Z,81.10
2018-03-17T06:31:09.204Z,81.00
2018-03-17T06:33:36.641Z,80.90
2018-03-17T06:36:04.080Z,80.90
2018-03-17T06:38:32.288Z,81.30
2018-03-17T06:40:59.754Z,81.20
2018-03-17T06:43:27.210Z,81.20
2018-03-17T06:45:54.676Z,82.00
2018-03-17T06:48:22.135Z,82.20
2018-03-17T06:50:49.597Z,82.50
2018-03-17T06:53:17.047Z,82.90
2018-03-17T06:55:44.500Z,82.70
2018-03-17T06:58:11.947Z,82.00
2018-03-17T07:00:39.404Z,81.00
2018-03-17T07:03:06.828Z,80.50
2018-03-17T07:05:35.030Z,79.00
2018-03-17T07:08:02.505Z,79.00
2018-03-17T07:10:29.907Z,78.50
2018-03-17T07:12:57.341Z,78.30
2018-03-17T07:15:24.788Z,78.20
2018-03-17T07:17:52.228Z,78.20
2018-03-17T07:20:19.669Z,78.10
2018-03-17T07:22:47.124Z,78.50
2018-03-17T07:25:14.606Z,78.10
2018-03-17T07:27:42.016Z,77.90
2018-03-17T07:30:09.436Z,77.50
2018-03-17T07:32:36.889Z,77.60
2018-03-17T07:35:04.334Z,77.20
2018-03-17T07:37:31.792Z,77.10
2018-03-17T07:39:59.239Z,76.90
2018-03-17T07:42:26.673Z,76.70
2018-03-17T07:44:54.123Z,76.00
2018-03-17T07:47:21.663Z,75.50
2018-03-17T07:49:49.107Z,75.40
2018-03-17T07:52:16.540Z,74.40
2018-03-17T07:54:44.041Z,73.40
2018-03-17T07:57:12.232Z,71.70
2018-03-17T07:59:39.672Z,71.50
2018-03-17T08:02:07.888Z,71.10
2018-03-17T08:04:35.321Z,71.10
2018-03-17T08:07:02.778Z,70.70
2018-03-17T08:09:30.363Z,69.90
2018-03-17T08:11:57.826Z,69.30
2018-03-17T08:14:25.344Z,69.20
2018-03-17T08:16:52.734Z,69.30
2018-03-17T08:19:20.164Z,69.90
2018-03-17T08:21:47.621Z,70.50
2018-03-17T08:24:15.044Z,70.70
2018-03-17T08:26:42.491Z,70.70
2018-03-17T08:29:09.931Z,70.70
2018-03-17T08:31:37.375Z,70.70
2018-03-17T08:34:04.862Z,71.30
2018-03-17T08:36:32.265Z,71.80
2018-03-17T08:38:59.711Z,70.80
2018-03-17T08:41:27.939Z,70.40
2018-03-17T08:43:55.388Z,70.30
2018-03-17T08:46:22.841Z,70.70
2018-03-17T08:48:50.295Z,70.90
2018-03-17T08:51:17.720Z,71.40
2018-03-17T08:53:45.176Z,71.70
2018-03-17T08:56:12.610Z,72.30
2018-03-17T08:58:40.052Z,72.70
2018-03-17T09:01:07.493Z,73.10
2018-03-17T09:03:34.940Z,73.30
2018-03-17T09:06:02.402Z,73.40
2018-03-17T09:08:29.827Z,73.60
2018-03-17T09:10:57.283Z,74.30
2018-03-17T09:13:24.708Z,75.00
2018-03-17T09:15:52.317Z,75.10
2018-03-17T09:18:19.748Z,76.10
2018-03-17T09:20:47.184Z,75.00
2018-03-17T09:23:14.640Z,74.90
2018-03-17T09:25:42.088Z,74.60
2018-03-17T09:28:09.539Z,74.60
2018-03-17T09:30:36.985Z,74.40
2018-03-17T09:33:04.437Z,74.50
2018-03-17T09:35:31.888Z,74.60
2018-03-17T09:37:59.431Z,74.40
2018-03-17T09:40:26.863Z,74.40
2018-03-17T09:42:54.303Z,74.10
2018-03-17T09:45:22.504Z,74.30
2018-03-17T09:47:49.940Z,74.10
2018-03-17T09:50:18.164Z,74.10
2018-03-17T09:52:45.615Z,74.00
2018-03-17T09:55:13.056Z,73.70
2018-03-17T09:57:40.503Z,73.80
2018-03-17T10:00:08.056Z,73.90
2018-03-17T10:02:35.488Z,73.40
2018-03-17T10:05:04.587Z,73.00
2018-03-17T10:07:32.015Z,73.00
2018-03-17T10:09:59.471Z,72.90
2018-03-17T10:12:26.920Z,73.10
2018-03-17T10:14:54.349Z,73.30
2018-03-17T10:17:21.807Z,73.50
2018-03-17T10:19:49.259Z,73.80
2018-03-17T10:22:16.684Z,74.00
2018-03-17T10:24:44.139Z,74.40
2018-03-17T10:27:11.583Z,74.60
2018-03-17T10:29:39.031Z,74.90
2018-03-17T10:32:06.465Z,75.10
2018-03-17T10:34:33.916Z,75.20
2018-03-17T10:37:01.425Z,75.40
2018-03-17T10:39:28.883Z,75.80
2018-03-17T10:41:56.304Z,76.00
2018-03-17T10:44:23.816Z,76.50
2018-03-17T10:46:52.017Z,77.20
2018-03-17T10:49:19.455Z,77.00
2018-03-17T10:51:46.900Z,77.20
2018-03-17T10:54:15.192Z,77.70
2018-03-17T10:56:42.575Z,77.60
2018-03-17T10:59:10.032Z,78.00
2018-03-17T11:01:41.395Z,78.50
2018-03-17T11:04:08.835Z,78.10
2018-03-17T11:06:36.524Z,77.90
2018-03-17T11:09:03.960Z,77.90
2018-03-17T11:11:31.412Z,78.40
2018-03-17T11:13:58.865Z,78.70
2018-03-17T11:16:26.307Z,79.00
2018-03-17T11:18:53.820Z,79.20
2018-03-17T11:21:21.996Z,79.10
2018-03-17T11:23:49.444Z,79.00
2018-03-17T11:26:16.916Z,78.80
2018-03-17T11:28:44.336Z,78.60
2018-03-17T11:31:11.788Z,78.40
2018-03-17T11:33:39.220Z,78.10
2018-03-17T11:36:06.656Z,78.30
2018-03-17T11:38:34.865Z,78.70
2018-03-17T11:41:02.315Z,78.60
2018-03-17T11:43:29.752Z,78.90
2018-03-17T11:45:57.191Z,78.70
2018-03-17T11:48:24.630Z,79.60
2018-03-17T11:50:52.085Z,80.20
2018-03-17T11:53:19.516Z,79.90
2018-03-17T11:55:46.959Z,79.70
2018-03-17T11:58:14.387Z,80.20
2018-03-17T12:00:41.846Z,80.40
2018-03-17T12:03:09.277Z,80.60
2018-03-17T12:05:36.733Z,81.30
2018-03-17T12:08:04.176Z,81.60
2018-03-17T12:10:31.625Z,81.40
2018-03-17T12:12:59.072Z,81.00
2018-03-17T12:15:26.559Z,80.90
2018-03-17T12:17:54.004Z,80.80
2018-03-17T12:20:21.492Z,80.50
2018-03-17T12:22:48.933Z,80.30
2018-03-17T12:25:16.368Z,79.70
2018-03-17T12:27:43.840Z,80.20
2018-03-17T12:30:11.279Z,79.70
2018-03-17T12:32:38.760Z,79.90
2018-03-17T12:35:06.216Z,79.40
2018-03-17T12:37:33.653Z,79.30
2018-03-17T12:40:01.101Z,79.50
2018-03-17T12:42:28.570Z,79.20
2018-03-17T12:44:56.000Z,79.20
2018-03-17T12:47:23.446Z,80.60
2018-03-17T12:49:50.876Z,81.10
2018-03-17T12:52:18.321Z,81.30
2018-03-17T12:54:45.779Z,81.30
2018-03-17T12:57:13.252Z,81.20
2018-03-17T12:59:41.481Z,81.30
2018-03-17T13:02:08.904Z,81.20
2018-03-17T13:04:36.347Z,83.00
2018-03-17T13:07:04.547Z,82.90
2018-03-17T13:09:32.003Z,82.80
2018-03-17T13:11:59.431Z,82.50
2018-03-17T13:14:27.641Z,82.20
2018-03-17T13:16:55.076Z,82.10
2018-03-17T13:19:31.400Z,81.50
2018-03-17T13:21:58.843Z,81.40
2018-03-17T13:24:26.288Z,80.90
2018-03-17T13:27:05.482Z,80.80
2018-03-17T13:29:32.909Z,81.30
2018-03-17T13:32:00.350Z,81.50
2018-03-17T13:34:27.768Z,81.10
2018-03-17T13:37:06.975Z,81.10
2018-03-17T13:39:34.483Z,80.80
2018-03-17T13:42:01.919Z,79.70
2018-03-17T13:44:29.356Z,79.00
2018-03-17T13:46:57.550Z,77.70
2018-03-17T13:49:25.001Z,77.70
2018-03-17T13:51:52.442Z,77.70
2018-03-17T13:54:20.660Z,76.80
2018-03-17T13:56:48.081Z,76.80
2018-03-17T13:59:16.301Z,76.00
2018-03-17T14:01:43.746Z,76.60
2018-03-17T14:04:11.203Z,75.80
2018-03-17T14:06:38.644Z,75.30
2018-03-17T14:09:06.119Z,75.10
2018-03-17T14:11:33.584Z,75.50
2018-03-17T14:14:01.017Z,75.30
2018-03-17T14:16:28.511Z,75.80
2018-03-17T14:18:55.948Z,75.30
2018-03-17T14:21:23.376Z,74.70
2018-03-17T14:23:50.897Z,74.20
2018-03-17T14:26:18.297Z,73.90
2018-03-17T14:28:46.502Z,73.30
2018-03-17T14:31:13.952Z,73.20
2018-03-17T14:33:41.444Z,73.10
2018-03-17T14:36:08.884Z,72.60
2018-03-17T14:38:36.334Z,72.40
2018-03-17T14:41:03.790Z,72.40
2018-03-17T14:43:31.211Z,72.10
2018-03-17T14:45:58.665Z,71.40
2018-03-17T14:48:26.168Z,71.70
2018-03-17T14:50:53.620Z,72.30
2018-03-17T14:53:21.053Z,71.30
2018-03-17T14:55:48.504Z,71.30
2018-03-17T14:58:15.954Z,71.10
2018-03-17T15:00:43.379Z,71.40
2018-03-17T15:03:10.824Z,71.40
2018-03-17T15:05:38.255Z,71.70
2018-03-17T15:08:05.708Z,71.40
2018-03-17T15:10:33.177Z,72.10
2018-03-17T15:13:00.643Z,72.20
2018-03-17T15:15:28.128Z,72.30
2018-03-17T15:17:55.544Z,72.10
2018-03-17T15:20:22.991Z,72.00
2018-03-17T15:22:50.419Z,72.00
2018-03-17T15:25:17.868Z,72.20
2018-03-17T15:27:45.301Z,71.70
2018-03-17T15:30:12.800Z,71.90
2018-03-17T15:32:40.228Z,72.10
2018-03-17T15:35:07.680Z,71.20
2018-03-17T15:37:35.106Z,71.10
2018-03-17T15:40:02.548Z,70.90
2018-03-17T15:42:30.021Z,70.80
2018-03-17T15:44:57.487Z,70.80
2018-03-17T15:47:24.920Z,70.40
2018-03-17T15:49:52.403Z,69.80
2018-03-17T15:52:19.933Z,70.70
2018-03-17T15:54:47.394Z,70.20
2018-03-17T15:57:14.837Z,70.30
2018-03-17T15:59:42.279Z,70.20
2018-03-17T16:02:09.711Z,70.20
2018-03-17T16:04:37.148Z,69.50
2018-03-17T16:07:04.619Z,69.60
2018-03-17T16:09:32.064Z,69.50
2018-03-17T16:11:59.510Z,69.30
2018-03-17T16:14:27.060Z,69.60
2018-03-17T16:16:55.279Z,69.90
2018-03-17T16:19:23.471Z,71.00
2018-03-17T16:21:50.960Z,70.00
2018-03-17T16:24:18.392Z,70.30
2018-03-17T16:26:45.837Z,70.20
2018-03-17T16:29:13.255Z,69.90
2018-03-17T16:31:40.701Z,69.50
2018-03-17T16:34:08.160Z,69.40
2018-03-17T16:36:35.604Z,69.70
2018-03-17T16:39:03.040Z,69.60
2018-03-17T16:41:30.479Z,69.50
2018-03-17T16:43:58.692Z,69.60
2018-03-17T16:46:26.154Z,69.50
2018-03-17T16:48:53.582Z,70.00
2018-03-17T16:51:21.026Z,69.90
2018-03-17T16:53:48.457Z,69.70
2018-03-17T16:56:15.900Z,69.40
2018-03-17T16:58:43.440Z,69.10
2018-03-17T17:01:10.844Z,68.90
2018-03-17T17:03:39.070Z,69.10
2018-03-17T17:06:06.510Z,69.00
2018-03-17T17:08:33.948Z,69.30
2018-03-17T17:11:01.381Z,69.20
2018-03-17T17:13:28.830Z,69.60
2018-03-17T17:15:56.276Z,69.50
2018-03-17T17:18:23.733Z,69.40
2018-03-17T17:20:51.181Z,69.40
2018-03-17T17:23:18.620Z,69.10
2018-03-17T17:25:46.064Z,69.10
2018-03-17T17:28:13.509Z,69.40
2018-03-17T17:30:41.707Z,69.40
2018-03-17T17:33:09.151Z,69.40
2018-03-17T17:35:36.604Z,69.50
2018-03-17T17:38:04.036Z,69.40
2018-03-17T17:40:32.267Z,69.60
2018-03-17T17:42:59.709Z,69.60
2018-03-17T17:45:27.144Z,69.60
2018-03-17T17:47:54.605Z,70.10
2018-03-17T17:50:22.794Z,70.60
2018-03-17T17:52:50.242Z,70.50
2018-03-17T17:55:17.686Z,71.40
2018-03-17T17:57:45.115Z,71.20
2018-03-17T18:00:12.556Z,71.80
2018-03-17T18:02:40.024Z,71.90
2018-03-17T18:05:07.511Z,72.30
2018-03-17T18:07:34.953Z,72.40
2018-03-17T18:10:02.395Z,73.10
2018-03-17T18:12:29.842Z,72.90
2018-03-17T18:14:57.269Z,73.20
2018-03-17T18:17:24.725Z,73.40
2018-03-17T18:19:52.184Z,73.80
2018-03-17T18:22:19.646Z,74.70
2018-03-17T18:24:47.100Z,75.80
2018-03-17T18:27:14.612Z,76.40
2018-03-17T18:29:42.050Z,76.60
2018-03-17T18:32:09.503Z,77.20
2018-03-17T18:34:36.928Z,76.80
2018-03-17T18:37:04.385Z,79.10
2018-03-17T18:39:31.880Z,80.60
2018-03-17T18:41:59.304Z,80.10
2018-03-17T18:44:26.756Z,79.60
2018-03-17T18:46:54.195Z,79.80
2018-03-17T18:49:21.756Z,79.40
2018-03-17T18:51:49.196Z,78.40
2018-03-17T18:54:16.630Z,79.10
2018-03-17T18:56:44.076Z,79.00
2018-03-17T18:59:11.535Z,79.50
2018-03-17T19:01:38.981Z,80.50
2018-03-17T19:04:06.417Z,82.70
2018-03-17T19:06:33.873Z,83.10
2018-03-17T19:09:01.330Z,84.30
2018-03-17T19:11:28.890Z,85.10
2018-03-17T19:13:56.271Z,84.10
2018-03-17T19:16:23.717Z,83.40
2018-03-17T19:18:51.168Z,83.80
2018-03-17T19:21:18.616Z,84.60
2018-03-17T19:23:46.067Z,85.40
2018-03-17T19:26:13.519Z,88.20
2018-03-17T19:28:40.995Z,83.80
2018-03-17T19:31:08.445Z,90.00
2018-03-17T19:33:35.961Z,90.60
2018-03-17T19:36:03.393Z,91.30
2018-03-17T19:38:30.837Z,88.80
2018-03-17T19:40:58.296Z,88.10
2018-03-17T19:43:25.737Z,88.10
2018-03-17T19:45:53.196Z,88.20
2018-03-17T19:48:20.649Z,86.80
2018-03-17T19:50:48.112Z,84.90
2018-03-17T19:53:15.560Z,85.10
2018-03-17T19:55:43.083Z,84.70
2018-03-17T19:58:10.512Z,85.20
2018-03-17T20:00:37.960Z,84.40
2018-03-17T20:03:05.416Z,85.10
2018-03-17T20:05:32.875Z,87.50
2018-03-17T20:08:00.327Z,88.20
2018-03-17T20:10:27.766Z,89.30
2018-03-17T20:12:55.199Z,90.60
2018-03-17T20:15:22.656Z,91.30
2018-03-17T20:17:50.111Z,92.00
2018-03-17T20:20:17.548Z,90.60
2018-03-17T20:22:45.768Z,93.00
2018-03-17T20:25:13.224Z,92.90
2018-03-17T20:27:40.657Z,93.30
2018-03-17T20:30:08.109Z,93.70
2018-03-17T20:32:35.572Z,94.30
2018-03-17T20:35:02.995Z,94.50
2018-03-17T20:37:30.432Z,94.80
2018-03-17T20:39:57.915Z,94.90
2018-03-17T20:42:25.367Z,94.70
2018-03-17T20:44:52.819Z,94.60
2018-03-17T20:47:20.255Z,94.40
2018-03-17T20:49:47.803Z,94.10
2018-03-17T20:52:15.253Z,93.80
2018-03-17T20:54:42.691Z,93.50
2018-03-17T20:57:10.150Z,93.90
2018-03-17T20:59:37.588Z,93.90
2018-03-17T21:02:05.062Z,93.10
2018-03-17T21:04:32.508Z,93.20
2018-03-17T21:06:59.948Z,92.60
2018-03-17T21:09:27.388Z,93.40
2018-03-17T21:11:54.833Z,92.80
2018-03-17T21:14:22.276Z,93.60
2018-03-17T21:16:49.720Z,94.00
2018-03-17T21:19:17.179Z,93.80
2018-03-17T21:21:44.612Z,92.70
2018-03-17T21:24:12.184Z,93.80
2018-03-17T21:26:39.611Z,95.10
2018-03-17T21:29:07.835Z,95.50
2018-03-17T21:31:35.292Z,95.50
2018-03-17T21:34:02.731Z,95.10
2018-03-17T21:36:30.220Z,92.90
2018-03-17T21:38:57.659Z,92.70
2018-03-17T21:41:25.128Z,93.80
2018-03-17T21:43:52.576Z,93.30
2018-03-17T21:46:20.217Z,92.60
2018-03-17T21:48:47.689Z,91.40
2018-03-17T21:51:15.132Z,91.10
2018-03-17T21:53:42.563Z,90.00
2018-03-17T21:56:10.783Z,88.50
2018-03-17T21:58:38.239Z,88.50
2018-03-17T22:01:05.700Z,89.80
2018-03-17T22:03:33.150Z,90.40
2018-03-17T22:06:00.611Z,90.80
2018-03-17T22:08:28.218Z,91.10
2018-03-17T22:10:55.664Z,91.90
2018-03-17T22:13:23.118Z,93.10
2018-03-17T22:15:50.575Z,94.10
2018-03-17T22:18:18.032Z,93.60
2018-03-17T22:20:45.483Z,95.00
2018-03-17T22:23:12.920Z,95.40
2018-03-17T22:25:40.374Z,94.50
2018-03-17T22:28:07.811Z,96.30
2018-03-17T22:30:35.346Z,96.40
2018-03-17T22:33:02.792Z,97.20
2018-03-17T22:35:30.231Z,96.50
2018-03-17T22:37:57.734Z,97.60
2018-03-17T22:40:25.116Z,98.30
2018-03-17T22:42:52.576Z,97.50
2018-03-17T22:45:20.048Z,98.20
2018-03-17T22:47:47.490Z,98.60
2018-03-17T22:50:14.950Z,98.80
2018-03-17T22:52:42.487Z,98.50
2018-03-17T22:55:09.947Z,98.60
2018-03-17T22:57:37.416Z,98.80
2018-03-17T23:00:04.851Z,98.70
2018-03-17T23:02:33.051Z,99.00
2018-03-17T23:05:00.522Z,98.90
2018-03-17T23:07:27.970Z,99.30
2018-03-17T23:09:55.425Z,98.90
2018-03-17T23:12:22.884Z,98.10
2018-03-17T23:14:50.540Z,98.10
2018-03-17T23:17:18.002Z,96.50
2018-03-17T23:19:45.455Z,96.30
2018-03-17T23:22:12.892Z,97.80
2018-03-17T23:24:40.348Z,97.80
2018-03-17T23:27:07.788Z,99.30
2018-03-17T23:29:35.216Z,96.20
2018-03-17T23:32:02.671Z,98.00
2018-03-17T23:34:30.111Z,97.40
2018-03-17T23:36:57.573Z,96.20
2018-03-17T23:39:25.037Z,93.10
2018-03-17T23:41:52.475Z,94.70
2018-03-17T23:44:19.931Z,93.40
2018-03-17T23:46:47.411Z,95.00
2018-03-17T23:49:14.855Z,94.00
2018-03-17T23:51:42.293Z,90.80
2018-03-17T23:54:09.734Z,89.20
2018-03-17T23:56:37.172Z,92.30
2018-03-17T23:59:05.411Z,92.50
